Molalla, OR (97038)

4:12 AM PDT on May 23, 2015 (GMT -0700)
Russellville Hill- | | Change Station
CLOSE
Current Station
Personal Weather Station
Location: Molalla, OR
Elevation: 1500 ft
Nearby Weather Stations

Elev 1500 ft 45.06 °N, 122.53 °W | Updated 2 minutes ago

Overcast
Overcast
48.4 °F
Feels Like 48 °F
N
0.0
Wind Variable Wind from SE
Gusts 5.0 mph

Today
High -- | Low -- °F
--% Chance of Precip.
Yesterday
High -- | Low -- °F
Precip. -- in
5:32 AM 8:41 PM
Waxing Crescent, 29% visible
Pressure 30.15 in
Visibility 10.0 miles
Clouds Overcast 1900 ft
Windchill 48 °F
Dew Point 45 °F
Humidity 89%
Rainfall 0.00 in
Snow Depth Not available.
UV 0 out of 12
Pollen 6.00 out of 12
Air Quality Not available.
Flu Activity No Activity
METAR KUAO 231053Z AUTO 00000KT 10SM OVC019 12/10 A3015 RMK AO2 SLP208 T01170100

More Conditions Fewer Conditions

Pressure 30.15 in
Visibility 10.0 miles
Clouds Overcast 1900 ft
Windchill 48 °F
Dew Point 45 °F
Humidity 89%
Rainfall 0.00 in
Snow Depth Not available.
UV 0 out of 12
Pollen 6.00 out of 12
Air Quality Not available.
Flu Activity No Activity
METAR KUAO 231053Z AUTO 00000KT 10SM OVC019 12/10 A3015 RMK AO2 SLP208 T01170100

More Conditions Fewer Conditions

10-Day Weather Forecast

Almanac

Astronomy

May. 23, 2015 Rise Set
Actual Time
Civil Twilight
Nautical Twilight
Astronomical Twilight
Moon
Length of Visible Light
Length of Day
Tomorrow will be .
, % of the Moon is Illuminated

Today's Extremes

State Highs State Lows

Community

WunderPhotos

Upload Photos

1,823,409 photos uploaded!

WunderBlogs® & News

Nearby

Air Quality

  Air Quality AQ Index Pollutant
Not available.

Snow Depth

Station Depth Elevation

Earthquake Activity

City Distance Mag. Time & Date
Minimum magnitude displayed is 2.5.

Coastal Water Temperatures

Place Temperature

Stations

Nearby Weather Stations

Station Location Temp. Windchill Dew Point Humidity Wind Precip. Elev Updated Type